CFB Cold Lake
CYOD : now visible

Airfield :











YOU CAN JOIN US ON...

 
LOGIN :

Register | Disclaimer

   EN    FR    IT 

 









Legend :    VFR   Marginal VFR   IFR   Intensive IFR   Very Intensive IFR
Visi :
Ceiling :
>= 8 km
>= 3000ft
5 to 8 km
1000 to 3000 ft
1500m to 5 km
500 to 1000 ft
800 to 1500m
200 to 500 ft
< 800m
< 200 ft
Symbols :   Thunderstorms  Fog  Heavy snow  Heavy precipitations  Wind > 20 kt






- Airport Elevation : 1775 ft
- IATA code : YOD


CYOD - CFB Cold Lake

CURRENT METAR :
  • 152300Z 19006KT 15SM FEW180 M04/M10 A2986 RMK AC2 SLP150

EXPIRED METARs :
  • 152200Z 21005KT 15SM SCT160 M04/M10 A2987 RMK AC3 SLP156
  • 152100Z 22006KT 15SM BKN160 M04/M10 A2989 RMK AC5 SLP161

TAF TAF CYOD
Valid from the 15 at 21:00 until the 16 at 18:00 UTC


152030Z 1521/1618 21008KT P6SM FEW110
BECMG 1601/1603 26008KT FEW060 BKN210
FM160600 27010KT P6SM SCT060 BKN210 RMK NXT FCST BY 160000Z
CZEG FIR / North America



MET'MAP, your aeronautical weather chart ! - Copyright ORBIFLY December 2007 - Disclaimer

ORBIFLY MET'MAP TEAM :

Programming & Development : Alexandra Zaïnal
Concept & original design : Baudouin d'Aumeries
Assistance for programming : Marc-Olivier Méhu
Technical & hardware support : Manuel Goepfert

Contact : metmap@orbifly.com




SOURCES & CREDITS :

   NOAA       Earth
Advisory